createdAt,value
2022-11-09T00:01:40.654Z,22.90
2022-11-09T00:04:09.829Z,24.30
2022-11-09T00:06:38.550Z,24.30
2022-11-09T00:09:09.978Z,23.80
2022-11-09T00:11:38.366Z,22.30
2022-11-09T00:14:06.858Z,25.80
2022-11-09T00:16:35.429Z,22.50
2022-11-09T00:19:04.120Z,24.50
2022-11-09T00:21:32.495Z,20.40
2022-11-09T00:24:00.952Z,19.40
2022-11-09T00:26:29.455Z,19.80
2022-11-09T00:28:58.025Z,20.60
2022-11-09T00:31:26.604Z,19.20
2022-11-09T00:33:57.338Z,20.30
2022-11-09T00:36:28.684Z,19.80
2022-11-09T00:39:00.636Z,20.40
2022-11-09T00:41:29.229Z,18.90
2022-11-09T00:43:57.611Z,19.50
2022-11-09T00:46:26.603Z,21.50
2022-11-09T00:48:56.241Z,17.70
2022-11-09T00:51:25.326Z,20.20
2022-11-09T00:53:55.945Z,21.80
2022-11-09T00:56:25.162Z,22.20
2022-11-09T00:58:58.143Z,21.00
2022-11-09T01:01:28.028Z,22.50
2022-11-09T01:03:56.636Z,20.90
2022-11-09T01:06:26.383Z,21.30
2022-11-09T01:08:55.031Z,21.10
2022-11-09T01:11:24.230Z,22.30
2022-11-09T01:13:55.964Z,19.60
2022-11-09T01:16:24.664Z,21.10
2022-11-09T01:18:55.904Z,17.30
2022-11-09T01:21:27.271Z,21.70
2022-11-09T01:23:58.804Z,21.20
2022-11-09T01:26:29.552Z,20.20
2022-11-09T01:28:57.930Z,20.40
2022-11-09T01:31:27.126Z,18.40
2022-11-09T01:33:55.714Z,18.70
2022-11-09T01:36:25.589Z,21.80
2022-11-09T01:38:54.396Z,21.30
2022-11-09T01:41:26.874Z,21.10
2022-11-09T01:44:15.118Z,19.70
2022-11-09T01:47:04.662Z,20.50
2022-11-09T01:49:49.966Z,22.00
2022-11-09T01:52:32.381Z,27.50
2022-11-09T01:55:10.293Z,22.40
2022-11-09T01:57:52.377Z,17.90
2022-11-09T02:00:21.060Z,18.80
2022-11-09T02:03:00.927Z,23.40
2022-11-09T02:05:35.225Z,22.70
2022-11-09T02:08:07.096Z,20.40
2022-11-09T02:10:50.624Z,21.30
2022-11-09T02:13:23.101Z,19.70
2022-11-09T02:15:52.365Z,21.10
2022-11-09T02:18:21.676Z,26.60
2022-11-09T02:20:53.758Z,21.70
2022-11-09T02:23:26.288Z,23.20
2022-11-09T02:26:01.679Z,22.60
2022-11-09T02:28:32.507Z,21.80
2022-11-09T02:31:02.012Z,21.90
2022-11-09T02:33:30.512Z,23.00
2022-11-09T02:36:00.119Z,23.00
2022-11-09T02:38:28.593Z,20.60
2022-11-09T02:40:57.079Z,19.70
2022-11-09T02:43:25.649Z,23.40
2022-11-09T02:45:54.036Z,22.90
2022-11-09T02:48:22.624Z,21.30
2022-11-09T02:50:51.092Z,21.70
2022-11-09T02:53:19.770Z,21.30
2022-11-09T02:55:48.771Z,19.80
2022-11-09T02:58:18.084Z,22.00
2022-11-09T03:00:46.928Z,22.90
2022-11-09T03:03:15.560Z,24.70
2022-11-09T03:05:44.527Z,21.10
2022-11-09T03:08:13.338Z,19.20
2022-11-09T03:10:41.716Z,21.90
2022-11-09T03:13:10.488Z,20.40
2022-11-09T03:15:38.983Z,20.90
2022-11-09T03:18:08.270Z,19.10
2022-11-09T03:20:36.624Z,20.80
2022-11-09T03:23:05.042Z,24.80
2022-11-09T03:25:35.112Z,19.60
2022-11-09T03:28:07.769Z,20.50
2022-11-09T03:30:36.452Z,20.50
2022-11-09T03:33:10.518Z,19.60
2022-11-09T03:35:39.209Z,21.40
2022-11-09T03:38:07.856Z,23.50
2022-11-09T03:40:37.411Z,19.50
2022-11-09T03:43:06.609Z,19.90
2022-11-09T03:45:35.503Z,20.00
2022-11-09T03:48:04.639Z,20.60
2022-11-09T03:50:35.184Z,19.50
2022-11-09T03:53:03.501Z,18.60
2022-11-09T03:55:32.085Z,17.90
2022-11-09T03:58:00.449Z,20.90
2022-11-09T04:00:29.343Z,21.10
2022-11-09T04:03:00.810Z,20.70
2022-11-09T04:05:29.376Z,19.70
2022-11-09T04:07:58.877Z,17.60
2022-11-09T04:10:27.585Z,21.70
2022-11-09T04:12:55.955Z,20.30
2022-11-09T04:15:24.340Z,20.50
2022-11-09T04:18:00.907Z,21.10
2022-11-09T04:20:31.789Z,18.90
2022-11-09T04:23:05.267Z,21.90
2022-11-09T04:25:37.359Z,18.80
2022-11-09T04:28:08.572Z,21.30
2022-11-09T04:30:37.535Z,19.50
2022-11-09T04:33:06.592Z,20.70
2022-11-09T04:35:36.063Z,18.90
2022-11-09T04:38:07.839Z,22.10
2022-11-09T04:40:36.776Z,20.30
2022-11-09T04:43:08.224Z,21.90
2022-11-09T04:45:36.641Z,22.80
2022-11-09T04:48:07.442Z,20.70
2022-11-09T04:50:35.929Z,23.30
2022-11-09T04:53:15.624Z,23.70
2022-11-09T04:55:44.907Z,19.70
2022-11-09T04:58:13.359Z,27.80
2022-11-09T05:00:41.823Z,22.20
2022-11-09T05:03:10.280Z,20.30
2022-11-09T05:05:48.306Z,22.50
2022-11-09T05:08:48.646Z,25.10
2022-11-09T05:11:17.837Z,22.00
2022-11-09T05:13:46.426Z,22.10
2022-11-09T05:16:17.694Z,27.50
2022-11-09T05:18:46.256Z,21.30
2022-11-09T05:21:14.774Z,20.10
2022-11-09T05:24:01.649Z,22.40
2022-11-09T05:26:32.942Z,20.40
2022-11-09T05:29:04.799Z,23.80
2022-11-09T05:31:34.049Z,21.90
2022-11-09T05:34:03.440Z,23.40
2022-11-09T05:39:02.066Z,22.00
2022-11-09T05:41:30.841Z,22.10
2022-11-09T05:43:59.185Z,20.80
2022-11-09T05:46:33.129Z,20.90
2022-11-09T05:49:06.063Z,21.60
2022-11-09T05:51:34.527Z,21.80
2022-11-09T05:54:03.040Z,24.90
2022-11-09T05:56:31.477Z,22.70
2022-11-09T05:59:00.056Z,20.30
2022-11-09T06:01:28.438Z,22.60
2022-11-09T06:03:59.157Z,22.50
2022-11-09T06:06:27.703Z,24.20
2022-11-09T06:08:56.155Z,23.90
2022-11-09T06:11:24.785Z,22.20
2022-11-09T06:13:53.265Z,22.00
2022-11-09T06:16:21.921Z,20.70
2022-11-09T06:18:50.270Z,19.30
2022-11-09T06:21:18.733Z,20.30
2022-11-09T06:23:47.186Z,20.40
2022-11-09T06:26:15.871Z,19.90
2022-11-09T06:28:44.555Z,18.10
2022-11-09T06:31:29.738Z,20.20
2022-11-09T06:34:05.951Z,19.10
2022-11-09T06:36:34.376Z,20.00
2022-11-09T06:39:02.961Z,23.50
2022-11-09T06:41:31.363Z,20.20
2022-11-09T06:43:59.771Z,21.10
2022-11-09T06:46:29.037Z,23.70
2022-11-09T06:51:28.999Z,24.30
2022-11-09T06:53:57.321Z,23.60
2022-11-09T06:56:25.692Z,23.60
2022-11-09T06:58:54.165Z,22.00
2022-11-09T07:01:28.911Z,23.70
2022-11-09T07:03:57.532Z,23.80
2022-11-09T07:06:26.259Z,20.50
2022-11-09T07:08:58.684Z,20.00
2022-11-09T07:11:27.282Z,21.70
2022-11-09T07:13:59.073Z,19.00
2022-11-09T07:16:28.750Z,19.20
2022-11-09T07:18:57.533Z,20.30
2022-11-09T07:21:25.945Z,19.00
2022-11-09T07:23:54.421Z,21.60
2022-11-09T07:26:22.812Z,18.70
2022-11-09T07:28:51.625Z,19.40
2022-11-09T07:31:20.107Z,19.50
2022-11-09T07:33:50.112Z,21.60
2022-11-09T07:36:21.585Z,21.20
2022-11-09T07:38:50.216Z,20.70
2022-11-09T07:41:18.586Z,21.30
2022-11-09T07:43:47.266Z,22.60
2022-11-09T07:46:15.994Z,20.00
2022-11-09T07:48:44.502Z,21.20
2022-11-09T07:51:12.874Z,22.80
2022-11-09T07:53:41.405Z,25.30
2022-11-09T07:56:09.948Z,23.50
2022-11-09T07:58:38.447Z,22.60
2022-11-09T08:01:11.448Z,21.00
2022-11-09T08:03:39.931Z,22.80
2022-11-09T08:06:08.544Z,24.60
2022-11-09T08:08:36.904Z,22.20
2022-11-09T08:11:05.710Z,23.10
2022-11-09T08:13:34.429Z,20.10
2022-11-09T08:16:03.330Z,27.00
2022-11-09T08:18:31.847Z,22.40
2022-11-09T08:21:04.629Z,27.10
2022-11-09T08:23:33.745Z,29.20
2022-11-09T08:26:05.297Z,26.00
2022-11-09T08:28:34.976Z,25.60
2022-11-09T08:31:07.406Z,25.90
2022-11-09T08:33:40.257Z,27.90
2022-11-09T08:36:15.371Z,28.20
2022-11-09T08:38:45.776Z,29.90
2022-11-09T08:41:14.632Z,25.90
2022-11-09T08:43:43.449Z,21.90
2022-11-09T08:46:12.220Z,25.30
2022-11-09T08:48:40.605Z,20.70
2022-11-09T08:51:09.091Z,22.90
2022-11-09T08:53:37.438Z,18.20
2022-11-09T08:56:08.139Z,17.80
2022-11-09T08:58:37.185Z,19.90
2022-11-09T09:01:15.334Z,21.00
2022-11-09T09:03:46.926Z,19.70
2022-11-09T09:06:17.392Z,20.60
2022-11-09T09:08:45.832Z,15.90
2022-11-09T09:11:14.336Z,16.30
2022-11-09T09:13:43.687Z,18.00
2022-11-09T09:16:15.580Z,16.10
2022-11-09T09:18:44.121Z,15.40
2022-11-09T09:21:13.686Z,15.90
2022-11-09T09:26:10.474Z,15.80
2022-11-09T09:28:39.195Z,16.00
2022-11-09T09:31:08.368Z,14.90
2022-11-09T09:33:37.271Z,16.80
2022-11-09T09:36:06.405Z,15.60
2022-11-09T09:38:34.752Z,18.00
2022-11-09T09:41:19.179Z,15.40
2022-11-09T09:43:52.756Z,18.40
2022-11-09T09:46:39.029Z,16.80
2022-11-09T09:49:14.827Z,16.90
2022-11-09T09:52:16.501Z,15.40
2022-11-09T09:54:59.796Z,17.10
2022-11-09T09:57:30.296Z,17.90
2022-11-09T10:00:16.182Z,19.00
2022-11-09T10:02:46.187Z,16.10
2022-11-09T10:05:16.938Z,19.50
2022-11-09T10:08:28.871Z,17.30
2022-11-09T10:11:25.405Z,17.80
2022-11-09T10:14:37.796Z,19.40
2022-11-09T10:17:41.220Z,19.10
2022-11-09T10:20:40.963Z,19.20
2022-11-09T10:23:33.616Z,19.00
2022-11-09T10:26:15.735Z,18.40
2022-11-09T10:29:14.441Z,21.20
2022-11-09T10:31:39.706Z,18.60
2022-11-09T10:34:30.291Z,19.60
2022-11-09T10:37:39.969Z,20.60
2022-11-09T10:40:31.367Z,22.20
2022-11-09T10:43:24.230Z,20.70
2022-11-09T10:46:12.091Z,23.90
2022-11-09T10:49:20.872Z,20.50
2022-11-09T10:52:29.949Z,22.90
2022-11-09T10:55:29.179Z,19.70
2022-11-09T10:58:26.299Z,22.00
2022-11-09T11:01:24.702Z,23.00
2022-11-09T11:04:25.679Z,24.50
2022-11-09T11:07:21.638Z,24.40
2022-11-09T11:10:21.672Z,23.10
2022-11-09T11:13:08.598Z,22.00
2022-11-09T11:15:55.192Z,22.00
2022-11-09T11:18:48.006Z,22.20
2022-11-09T11:21:35.262Z,21.10
2022-11-09T11:24:21.991Z,22.40
2022-11-09T11:27:24.441Z,22.90
2022-11-09T11:30:28.778Z,21.20
2022-11-09T11:33:22.711Z,23.90
2022-11-09T11:36:27.115Z,22.10
2022-11-09T11:39:29.472Z,23.80
2022-11-09T11:42:53.085Z,22.20
2022-11-09T11:46:07.665Z,19.20
2022-11-09T11:49:04.184Z,21.00
2022-11-09T11:52:16.141Z,23.90
2022-11-09T11:55:39.669Z,22.70
2022-11-09T11:58:51.288Z,21.70
2022-11-09T12:02:06.495Z,23.40
2022-11-09T12:05:31.462Z,27.50
2022-11-09T12:08:41.127Z,25.70
2022-11-09T12:12:13.534Z,23.70
2022-11-09T12:15:21.765Z,21.00
2022-11-09T12:18:34.731Z,25.10
2022-11-09T12:21:57.470Z,23.30
2022-11-09T12:25:02.458Z,21.40
2022-11-09T12:28:17.464Z,20.80
2022-11-09T12:31:25.040Z,22.40
2022-11-09T12:34:29.450Z,20.50
2022-11-09T12:37:25.093Z,20.20
2022-11-09T12:40:32.825Z,22.20
2022-11-09T12:43:27.829Z,22.20
2022-11-09T12:46:17.229Z,22.10
2022-11-09T12:49:06.369Z,21.80
2022-11-09T12:51:58.812Z,21.00
2022-11-09T12:54:51.500Z,24.40
2022-11-09T12:57:42.853Z,20.30
2022-11-09T13:00:33.990Z,23.80
2022-11-09T13:03:54.382Z,23.10
2022-11-09T13:06:42.779Z,21.80
2022-11-09T13:09:44.046Z,19.90
2022-11-09T13:12:39.714Z,20.70
2022-11-09T13:15:29.072Z,18.60
2022-11-09T13:18:45.802Z,20.90
2022-11-09T13:21:35.532Z,20.50
2022-11-09T13:24:31.293Z,22.70
2022-11-09T13:27:33.607Z,23.60
2022-11-09T13:30:28.603Z,22.10
2022-11-09T13:33:15.693Z,22.90
2022-11-09T13:36:08.964Z,24.00
2022-11-09T13:39:23.352Z,23.90
2022-11-09T13:42:40.363Z,23.10
2022-11-09T13:45:47.976Z,22.20
2022-11-09T13:48:46.597Z,22.90
2022-11-09T13:51:36.021Z,24.10
2022-11-09T13:54:37.751Z,23.10
2022-11-09T13:57:25.709Z,25.70
2022-11-09T14:00:24.831Z,25.10
2022-11-09T14:03:22.488Z,26.50
2022-11-09T14:06:13.633Z,21.20
2022-11-09T14:09:01.501Z,23.70
2022-11-09T14:11:51.376Z,27.30
2022-11-09T14:15:12.520Z,27.10
2022-11-09T14:18:26.384Z,23.20
2022-11-09T14:21:37.559Z,28.40
2022-11-09T14:24:32.988Z,26.70
2022-11-09T14:27:23.517Z,23.40
2022-11-09T14:30:22.691Z,26.20
2022-11-09T14:33:33.071Z,23.00
2022-11-09T14:36:20.172Z,29.20
2022-11-09T14:39:22.728Z,28.30
2022-11-09T14:42:19.874Z,28.60
2022-11-09T14:45:14.881Z,26.20
2022-11-09T14:48:01.777Z,25.50
2022-11-09T14:50:51.744Z,27.10
2022-11-09T14:53:42.535Z,27.80
2022-11-09T14:56:30.001Z,28.60
2022-11-09T14:59:23.283Z,27.30
2022-11-09T15:02:17.688Z,25.90
2022-11-09T15:05:07.189Z,25.80
2022-11-09T15:07:54.111Z,27.80
2022-11-09T15:10:53.830Z,24.90
2022-11-09T15:13:41.807Z,24.20
2022-11-09T15:16:31.745Z,24.00
2022-11-09T15:19:27.540Z,24.50
2022-11-09T15:22:53.373Z,26.60
2022-11-09T15:25:43.670Z,27.30
2022-11-09T15:28:31.564Z,28.40
2022-11-09T15:31:19.588Z,28.70
2022-11-09T15:34:32.266Z,30.20
2022-11-09T15:37:47.085Z,31.20
2022-11-09T15:40:33.983Z,24.20
2022-11-09T15:43:21.092Z,30.80
2022-11-09T15:46:07.836Z,29.30
2022-11-09T15:49:06.743Z,28.00
2022-11-09T15:51:54.781Z,27.50
2022-11-09T15:54:46.598Z,28.40
2022-11-09T15:57:34.113Z,31.40
2022-11-09T16:00:22.473Z,31.10
2022-11-09T16:03:10.415Z,30.80
2022-11-09T16:05:59.468Z,32.80
2022-11-09T16:08:51.376Z,30.80
2022-11-09T16:11:38.665Z,30.80
2022-11-09T16:14:26.412Z,27.80
2022-11-09T16:17:13.357Z,30.10
2022-11-09T16:19:59.994Z,32.10
2022-11-09T16:22:47.577Z,32.20
2022-11-09T16:25:34.152Z,30.00
2022-11-09T16:28:21.438Z,30.70
2022-11-09T16:31:10.217Z,31.90
2022-11-09T16:33:57.260Z,36.90
2022-11-09T16:36:49.872Z,37.80
2022-11-09T16:39:40.685Z,35.60
2022-11-09T16:42:27.632Z,31.40
2022-11-09T16:45:17.169Z,33.50
2022-11-09T16:48:10.504Z,31.60
2022-11-09T16:50:57.094Z,33.50
2022-11-09T16:53:43.640Z,36.10
2022-11-09T16:56:30.396Z,34.10
2022-11-09T16:59:27.464Z,39.60
2022-11-09T17:02:15.088Z,35.60
2022-11-09T17:05:02.539Z,34.70
2022-11-09T17:07:49.787Z,29.30
2022-11-09T17:10:42.869Z,34.30
2022-11-09T17:13:29.739Z,30.20
2022-11-09T17:16:20.503Z,27.50
2022-11-09T17:19:07.239Z,29.40
2022-11-09T17:21:53.897Z,29.30
2022-11-09T17:24:41.189Z,28.70
2022-11-09T17:27:29.078Z,29.60
2022-11-09T17:30:16.400Z,23.30
2022-11-09T17:33:03.708Z,24.60
2022-11-09T17:36:02.149Z,27.70
2022-11-09T17:38:49.364Z,26.30
2022-11-09T17:41:42.319Z,26.40
2022-11-09T17:44:29.796Z,24.10
2022-11-09T17:47:16.478Z,23.80
2022-11-09T17:50:03.896Z,20.70
2022-11-09T17:52:50.793Z,24.10
2022-11-09T17:55:38.709Z,24.00
2022-11-09T17:58:26.065Z,25.30
2022-11-09T18:01:20.158Z,23.80
2022-11-09T18:04:10.121Z,25.10
2022-11-09T18:06:56.881Z,23.80
2022-11-09T18:09:44.153Z,21.10
2022-11-09T18:12:30.850Z,23.50
2022-11-09T18:15:17.660Z,26.60
2022-11-09T18:18:05.533Z,23.20
2022-11-09T18:20:53.226Z,20.90
2022-11-09T18:23:40.288Z,27.40
2022-11-09T18:26:27.352Z,24.50
2022-11-09T18:29:13.803Z,21.30
2022-11-09T18:32:00.464Z,22.70
2022-11-09T18:34:47.485Z,23.40
2022-11-09T18:37:35.751Z,19.90
2022-11-09T18:40:22.944Z,20.90
2022-11-09T18:43:09.919Z,25.30
2022-11-09T18:45:59.732Z,23.70
2022-11-09T18:48:52.096Z,26.50
2022-11-09T18:51:38.943Z,23.50
2022-11-09T18:54:25.765Z,21.20
2022-11-09T18:57:17.236Z,24.50
2022-11-09T19:00:07.473Z,26.90
2022-11-09T19:02:54.369Z,22.00
2022-11-09T19:05:48.115Z,24.40
2022-11-09T19:08:53.867Z,23.10
2022-11-09T19:11:40.767Z,22.50
2022-11-09T19:14:29.508Z,20.70
2022-11-09T19:17:16.544Z,22.70
2022-11-09T19:20:04.695Z,23.00
2022-11-09T19:22:51.590Z,19.60
2022-11-09T19:25:38.743Z,21.00
2022-11-09T19:28:25.808Z,20.90
2022-11-09T19:31:18.174Z,18.20
2022-11-09T19:34:04.952Z,19.90
2022-11-09T19:36:51.586Z,22.00
2022-11-09T19:39:43.136Z,20.30
2022-11-09T19:42:30.533Z,17.80
2022-11-09T19:45:17.573Z,20.70
2022-11-09T19:48:04.463Z,20.00
2022-11-09T19:50:53.298Z,18.70
2022-11-09T19:53:42.504Z,20.40
2022-11-09T19:56:32.177Z,19.10
2022-11-09T19:59:21.019Z,19.70
2022-11-09T20:02:10.698Z,18.50
2022-11-09T20:04:57.662Z,18.30
2022-11-09T20:07:44.537Z,18.20
2022-11-09T20:10:31.347Z,18.30
2022-11-09T20:13:20.711Z,19.10
2022-11-09T20:16:09.672Z,18.00
2022-11-09T20:18:56.780Z,18.30
2022-11-09T20:21:44.927Z,18.30
2022-11-09T20:24:31.516Z,19.90
2022-11-09T20:27:18.607Z,16.60
2022-11-09T20:30:06.532Z,15.50
2022-11-09T20:32:53.469Z,14.70
2022-11-09T20:35:44.326Z,19.30
2022-11-09T20:38:33.993Z,16.90
2022-11-09T20:41:25.232Z,17.40
2022-11-09T20:44:12.736Z,14.40
2022-11-09T20:46:59.527Z,19.60
2022-11-09T20:49:47.496Z,17.10
2022-11-09T20:52:34.874Z,15.80
2022-11-09T20:55:21.593Z,17.30
2022-11-09T20:58:13.687Z,15.00
2022-11-09T21:01:07.869Z,16.80
2022-11-09T21:03:54.840Z,17.30
2022-11-09T21:06:41.582Z,16.00
2022-11-09T21:09:28.362Z,17.10
2022-11-09T21:12:25.144Z,15.30
2022-11-09T21:15:14.357Z,15.40
2022-11-09T21:18:01.084Z,16.60
2022-11-09T21:20:48.188Z,15.00
2022-11-09T21:23:55.641Z,15.90
2022-11-09T21:27:01.244Z,15.40
2022-11-09T21:29:50.718Z,14.00
2022-11-09T21:35:23.983Z,15.80
2022-11-09T21:38:10.580Z,13.50
2022-11-09T21:41:05.503Z,14.10
2022-11-09T21:43:56.240Z,14.10
2022-11-09T21:46:44.111Z,12.60
2022-11-09T21:49:30.960Z,14.80
2022-11-09T21:52:17.952Z,17.60
2022-11-09T21:55:05.692Z,15.10
2022-11-09T21:57:52.441Z,13.60
2022-11-09T22:00:39.873Z,14.30
2022-11-09T22:03:26.764Z,15.20
2022-11-09T22:06:14.760Z,15.50
2022-11-09T22:09:01.715Z,13.90
2022-11-09T22:12:06.926Z,13.80
2022-11-09T22:15:11.914Z,14.50
2022-11-09T22:17:59.334Z,13.90
2022-11-09T22:20:55.341Z,13.90
2022-11-09T22:23:42.521Z,14.90
2022-11-09T22:26:31.892Z,13.90
2022-11-09T22:29:18.901Z,12.90
2022-11-09T22:32:06.036Z,13.40
2022-11-09T22:34:53.098Z,14.40
2022-11-09T22:37:39.665Z,15.10
2022-11-09T22:40:26.413Z,14.80
2022-11-09T22:43:13.535Z,12.50
2022-11-09T22:46:12.628Z,13.20
2022-11-09T22:48:59.862Z,13.30
2022-11-09T22:51:46.701Z,13.90
2022-11-09T22:54:33.348Z,11.80
2022-11-09T22:57:20.076Z,14.40
2022-11-09T23:00:10.939Z,11.60
2022-11-09T23:02:58.099Z,12.30
2022-11-09T23:05:45.918Z,13.50
2022-11-09T23:08:38.097Z,11.80
2022-11-09T23:11:25.992Z,13.00
2022-11-09T23:14:13.191Z,12.00
2022-11-09T23:16:59.845Z,12.40
2022-11-09T23:19:46.985Z,12.80
2022-11-09T23:22:35.501Z,12.40
2022-11-09T23:25:41.052Z,11.10
2022-11-09T23:28:27.644Z,11.10
2022-11-09T23:31:19.612Z,12.00
2022-11-09T23:34:09.979Z,11.30
2022-11-09T23:36:57.172Z,11.50
2022-11-09T23:39:43.837Z,13.10
2022-11-09T23:42:30.480Z,10.90
2022-11-09T23:45:17.075Z,9.90
2022-11-09T23:48:06.885Z,11.40
2022-11-09T23:50:59.115Z,12.30
2022-11-09T23:53:45.948Z,13.30
2022-11-09T23:56:32.565Z,12.40
2022-11-09T23:59:20.316Z,11.20
